Jerry City, Ohio
Current Conditions -  °F | °C
As of 2:14 PM on Monday 20 Oct 2014 (Local Time) from KFDY Reporting Station
Light Rain Light Rain  
Wind Chill: 12°   Ceiling: 1900
Heat Index: 12°   Visibility: 3mi
Dew Point: 10°   Wind: 6mph
Humidity: 89%   Direction: 240°WSW
Pressure: 29.84"   Gusts: NA
Location:  41.25°N, 83.6°W
Report Text: KFDY 201814Z AUTO 24005KT 3SM -RA BR BKN019 BKN025 OVC055 12/10 A2984 RMK AO2 P0006 T01170100
Loading
Personal Weather Stations






























Interactive Weather Map
Tropical Storm Tracking
New forecast layout! Learn more

10-Day Weather Forecast

Advertisements
Track Severe Weather on mobile